Latest Weather Observations for Mardie

IDW60801

Issued at 2:03 pm WST Monday 25 July 2016 (issued every 30 minutes, with the page automatically refreshed every 10 minutes)

About weather observations | Map of weather stations | Latest weather observations for WA | Other Formats
Station Details ID: 005008 Name: MARDIE Lat: -21.19 Lon: 115.98 Height: 11.0 m
Data from the previous 72 hours. | See also: Recent months at Mardie
Date/Time
WST
Temp
°C
App
Temp
°C
Dew
Point
°C
Rel
Hum
%
Delta-T
°C
Wind Press
QNH
hPa
Press
MSL
hPa
Rain since
9am
mm
Dir  Spd
km/h
Gust
km/h
Spd
kts
Gust
kts
25/02:00pm 28.9 29.3 13.6 39 9.1 ENE 4 9 2 5 1015.7 1015.7 0.0
25/01:30pm 28.2 27.7 12.1 37 9.3 SSW 6 11 3 6 1016.0 1016.0 0.0
25/01:00pm 28.1 27.8 12.8 38 9.0 SSE 6 13 3 7 1016.6 1016.6 0.0
25/12:30pm 27.4 27.5 12.6 40 8.6 ESE 4 7 2 4 1017.2 1017.1 0.0
25/12:00pm 26.8 26.4 14.2 46 7.5 ESE 9 15 5 8 1017.7 1017.6 0.0
25/11:30am 25.5 24.8 14.3 50 6.7 ESE 11 19 6 10 1018.2 1018.1 0.0
25/11:00am 24.7 24.1 14.5 53 6.0 ESE 11 15 6 8 1018.6 1018.5 0.0
25/10:30am 24.1 24.1 15.1 57 5.4 E 9 15 5 8 1019.1 1019.0 0.0
25/10:00am 23.3 23.4 15.6 62 4.6 E 9 13 5 7 1019.4 1019.3 0.0
25/09:30am 22.5 23.2 16.1 67 3.9 ESE 7 13 4 7 1019.4 1019.3 0.0
25/09:00am 21.6 22.9 17.0 75 2.8 NW 6 9 3 5 1019.3 1019.2 0.0
25/08:30am 20.9 25.1 20.9 100 0.0 CALM 0 0 0 0 1019.3 1019.2 0.0
25/08:00am 19.5 23.0 19.5 100 0.0 CALM 0 0 0 0 1018.8 1018.7 0.0
25/07:30am 18.2 21.1 18.2 100 0.0 CALM 0 0 0 0 1018.5 1018.4 0.0
25/07:00am 17.9 19.9 17.9 100 0.0 NW 4 6 2 3 1018.2 1018.1 0.0
25/06:30am 17.6 19.1 17.6 100 0.0 NNW 6 7 3 4 1017.9 1017.8 0.0
25/06:00am 17.8 19.4 17.8 100 0.0 NW 6 6 3 3 1017.5 1017.4 0.0
25/05:30am 17.9 19.0 17.9 100 0.0 NW 9 13 5 7 1017.4 1017.3 0.0
25/05:00am 18.4 20.6 18.4 100 0.0 SE 4 6 2 3 1016.7 1016.7 0.0
25/04:30am 18.7 20.7 18.7 100 0.0 SE 6 6 3 3 1017.0 1016.9 0.0
25/04:00am 18.5 20.3 18.3 99 0.1 SE 6 7 3 4 1016.6 1016.6 0.0
25/03:30am 18.5 20.6 18.0 97 0.3 SE 4 7 2 4 1016.5 1016.5 0.0
25/03:00am 18.7 21.3 17.5 93 0.7 CALM 0 0 0 0 1016.5 1016.5 0.0
25/02:30am 19.1 20.5 17.4 90 1.0 SE 6 6 3 3 1016.6 1016.6 0.0
25/02:00am 19.4 20.8 17.4 88 1.2 SE 6 6 3 3 1016.8 1016.8 0.0
25/01:30am 19.6 21.0 17.7 89 1.2 SE 7 7 4 4 1017.2 1017.1 0.0
25/01:00am 19.6 21.7 17.2 86 1.5 SE 2 4 1 2 1017.6 1017.5 0.0
25/12:30am 20.0 21.6 17.0 83 1.8 SE 4 6 2 3 1017.7 1017.6 0.0
25/12:00am 19.8 21.1 17.0 84 1.7 SE 6 6 3 3 1017.9 1017.8 0.0
 
Date/Time
WST
Temp
°C
App
Temp
°C
Dew
Point
°C
Rel
Hum
%
Delta-T
°C
Wind Press
QNH
hPa
Press
MSL
hPa
Rain since
9am
mm
Dir  Spd
km/h
Gust
km/h
Spd
kts
Gust
kts
24/11:30pm 19.8 20.9 17.0 84 1.7 SE 7 9 4 5 1018.0 1017.9 0.0
24/11:00pm 20.0 20.9 16.6 81 2.0 SE 7 9 4 5 1018.3 1018.2 0.0
24/10:30pm 20.2 21.2 16.4 79 2.3 ESE 6 6 3 3 1018.4 1018.3 0.0
24/10:00pm 20.5 21.6 16.5 78 2.4 ESE 6 7 3 4 1018.4 1018.3 0.0
24/09:30pm 20.2 21.4 16.8 81 2.1 SSE 6 7 3 4 1018.5 1018.4 0.0
24/09:00pm 20.4 21.7 17.2 82 1.9 SSE 6 6 3 3 1018.4 1018.3 0.0
24/08:30pm 20.7 21.9 17.3 81 2.1 SSE 7 9 4 5 1018.3 1018.2 0.0
24/08:00pm 20.8 22.1 17.0 79 2.3 SSE 6 7 3 4 1018.0 1017.9 0.0
24/07:30pm 21.0 22.0 16.4 75 2.8 SSE 6 7 3 4 1017.8 1017.7 0.0
24/07:00pm 21.2 22.1 16.0 72 3.1 SE 6 7 3 4 1017.7 1017.6 0.0
24/06:30pm 21.9 22.3 15.3 66 3.9 SE 7 9 4 5 1017.2 1017.1 0.0
24/06:00pm 22.4 22.8 15.3 64 4.2 NE 7 9 4 5 1017.2 1017.1 0.0
24/05:30pm 22.9 22.6 14.5 59 5.0 SE 9 13 5 7 1016.8 1016.8 0.0
24/05:00pm 23.2 23.7 15.0 60 4.9 SE 6 7 3 4 1016.6 1016.6 0.0
24/04:30pm 23.5 23.5 14.2 56 5.5 SE 7 11 4 6 1016.4 1016.4 0.0
24/04:00pm 23.4 23.0 14.1 56 5.5 SSE 9 11 5 6 1016.0 1016.0 0.0
24/03:30pm 23.1 22.9 14.7 59 5.0 SSE 9 13 5 7 1016.1 1016.1 0.0
24/03:00pm 24.4 21.7 11.7 45 7.2 SSE 17 20 9 11 1015.8 1015.8 0.0
24/02:30pm 24.4 22.4 11.4 44 7.3 SE 13 17 7 9 1015.7 1015.7 0.0
24/02:00pm 24.6 23.0 12.9 48 6.8 SE 13 17 7 9 1015.6 1015.6 0.0
24/01:30pm 24.8 23.0 13.4 49 6.7 SE 15 20 8 11 1015.7 1015.7 0.0
24/01:00pm 24.7 24.3 14.2 52 6.2 SSE 9 17 5 9 1016.5 1016.5 0.0
24/12:30pm 24.0 23.8 14.7 56 5.5 SSE 9 13 5 7 1016.8 1016.8 0.0
24/12:00pm 23.8 23.6 15.6 60 4.9 SE 11 15 6 8 1017.2 1017.1 0.0
24/11:30am 23.3 22.6 16.4 65 4.2 SE 15 19 8 10 1017.2 1017.1 0.0
24/11:00am 22.8 22.4 16.1 66 4.0 SE 13 19 7 10 1017.5 1017.4 0.0
24/10:30am 22.0 22.1 16.5 71 3.3 ESE 11 17 6 9 1018.0 1017.9 0.0
24/10:00am 21.5 23.6 17.3 77 2.6 W 2 4 1 2 1018.6 1018.5 0.0
24/09:30am 21.1 22.8 17.1 78 2.4 W 4 7 2 4 1018.7 1018.6 0.0
24/09:00am 20.8 22.0 16.8 78 2.4 W 6 6 3 3 1018.2 1018.1 0.0
24/08:30am 20.5 21.8 17.5 83 1.8 WNW 7 9 4 5 1017.8 1017.7 0.0
24/08:00am 20.0 21.9 17.6 86 1.5 NNE 4 6 2 3 1017.3 1017.2 0.0
24/07:30am 19.6 21.4 17.4 87 1.3 NNE 4 6 2 3 1016.7 1016.7 0.0
24/07:00am 19.6 21.2 17.0 85 1.6 NNE 4 6 2 3 1016.2 1016.2 0.0
24/06:30am 19.7 20.9 16.9 84 1.7 S 6 7 3 4 1015.8 1015.8 0.0
24/06:00am 19.6 19.8 16.8 84 1.7 S 11 15 6 8 1015.3 1015.3 0.0
24/05:30am 19.4 19.7 17.0 86 1.5 SSE 11 15 6 8 1014.8 1014.8 0.0
24/05:00am 19.4 19.9 16.6 84 1.7 S 9 13 5 7 1015.2 1015.2 0.0
24/04:30am 19.6 21.1 16.6 83 1.8 SSE 4 6 2 3 1015.5 1015.5 0.0
24/04:00am 19.8 20.7 16.1 79 2.2 W 6 7 3 4 1016.0 1016.0 0.0
24/03:30am 20.4 21.3 16.0 76 2.6 SW 6 11 3 6 1016.2 1016.2 0.0
24/03:00am 20.8 21.0 15.8 73 3.0 SSE 9 11 5 6 1016.0 1016.0 0.0
24/02:30am 20.6 20.4 15.8 74 2.9 SSE 11 13 6 7 1016.0 1016.0 0.0
24/02:00am 20.4 19.2 16.0 76 2.6 SSE 17 22 9 12 1015.7 1015.7 0.0
24/01:30am 20.1 19.2 15.9 77 2.5 S 15 22 8 12 1016.1 1016.1 0.0
24/01:00am 20.2 18.9 15.8 76 2.6 S 17 20 9 11 1016.0 1016.0 0.0
24/12:30am 20.3 19.0 15.7 75 2.7 SSW 17 24 9 13 1016.4 1016.4 0.0
24/12:00am 20.6 19.8 16.0 75 2.8 SSW 15 20 8 11 1016.4 1016.4 0.0
 
Date/Time
WST
Temp
°C
App
Temp
°C
Dew
Point
°C
Rel
Hum
%
Delta-T
°C
Wind Press
QNH
hPa
Press
MSL
hPa
Rain since
9am
mm
Dir  Spd
km/h
Gust
km/h
Spd
kts
Gust
kts
23/11:30pm 20.7 19.8 15.9 74 2.9 SSW 15 20 8 11 1016.3 1016.3 0.0
23/11:00pm 20.8 21.0 15.8 73 3.0 SSW 9 13 5 7 1016.1 1016.1 0.0
23/10:30pm 20.9 21.5 15.7 72 3.1 S 7 11 4 6 1016.0 1016.0 0.0
23/10:00pm 21.2 20.9 15.5 70 3.4 S 11 17 6 9 1016.1 1016.1 0.0
23/09:30pm 21.1 20.0 15.4 70 3.4 S 15 20 8 11 1016.1 1016.1 0.0
23/09:00pm 21.1 20.4 15.4 70 3.4 S 13 17 7 9 1015.9 1015.9 0.0
23/08:30pm 21.2 20.8 15.3 69 3.5 S 11 15 6 8 1015.9 1015.9 0.0
23/08:00pm 21.5 21.1 15.3 68 3.7 S 11 15 6 8 1015.7 1015.7 0.0
23/07:30pm 21.7 20.6 15.3 67 3.8 S 15 20 8 11 1015.6 1015.6 0.0
23/07:00pm 21.6 20.0 15.0 66 3.9 S 17 20 9 11 1015.5 1015.5 0.0
23/06:30pm 21.8 19.2 14.9 65 4.1 S 22 33 12 18 1015.4 1015.4 0.0
23/06:00pm 22.1 19.2 15.0 64 4.2 S 24 33 13 18 1015.3 1015.3 0.0
23/05:30pm 22.9 19.5 14.7 60 4.9 S 26 35 14 19 1014.9 1014.9 0.0
23/05:00pm 23.8 21.0 15.3 59 5.1 S 24 33 13 18 1014.7 1014.7 0.0
23/04:30pm 24.5 21.3 15.4 57 5.5 S 26 35 14 19 1014.2 1014.2 0.0
23/04:00pm 25.0 25.5 15.6 56 5.7 WSW 7 11 4 6 1014.5 1014.5 0.0
23/03:30pm 24.1 24.1 15.1 57 5.4 W 9 13 5 7 1014.5 1014.5 0.0
23/03:00pm 23.8 24.0 14.8 57 5.4 W 7 11 4 6 1014.7 1014.7 0.0
23/02:30pm 24.1 22.5 13.9 53 6.0 WNW 15 20 8 11 1015.1 1015.1 0.0
23/02:00pm 25.9 26.7 13.7 47 7.2 NNE 2 7 1 4 1015.4 1015.4 0.0
23/01:30pm 25.4 26.4 14.2 50 6.6 ENE 2 7 1 4 1015.5 1015.5 0.0
23/01:00pm 25.0 26.2 14.8 53 6.1 ENE 2 6 1 3 1016.0 1016.0 0.0
23/12:30pm 24.8 24.8 13.7 50 6.5 ENE 6 9 3 5 1016.4 1016.4 0.0
23/12:00pm 24.3 23.8 13.8 52 6.1 E 9 11 5 6 1016.6 1016.6 0.0
23/11:30am 23.9 23.9 14.3 55 5.7 E 7 11 4 6 1016.7 1016.7 0.0
23/11:00am 23.4 22.2 14.1 56 5.5 E 13 17 7 9 1016.8 1016.8 0.0
23/10:30am 22.9 21.9 14.5 59 5.0 ENE 13 17 7 9 1017.4 1017.3 0.0
23/10:00am 22.5 22.3 14.6 61 4.7 E 9 13 5 7 1017.7 1017.6 0.0
23/09:30am 22.3 22.5 14.7 62 4.5 E 7 9 4 5 1017.5 1017.4 0.0
23/09:00am 21.4 22.3 16.1 72 3.2 SE 6 9 3 5 1017.4 1017.3 0.0
23/08:30am 20.2 22.4 16.4 79 2.3 CALM 0 0 0 0 1017.3 1017.2 0.0
23/08:00am 20.0 21.0 16.4 80 2.2 E 6 7 3 4 1017.2 1017.1 0.0
23/07:30am 19.6 21.0 16.4 82 1.9 SSW 4 6 2 3 1017.1 1017.0 0.0
23/07:00am 19.4 20.7 16.1 81 2.0 SSW 4 6 2 3 1016.6 1016.6 0.0
23/06:30am 19.3 20.5 15.8 80 2.1 SSW 4 7 2 4 1016.5 1016.5 0.0
23/06:00am 19.1 20.2 15.6 80 2.1 SSW 4 7 2 4 1015.7 1015.7 0.0
23/05:30am 19.2 19.9 15.7 80 2.1 S 6 9 3 5 1015.4 1015.4 0.0
23/05:00am 19.1 20.0 16.0 82 1.8 S 6 6 3 3 1015.3 1015.3 0.0
23/04:30am 19.2 19.9 15.5 79 2.2 S 6 6 3 3 1015.5 1015.5 0.0
23/04:00am 19.4 20.0 15.3 77 2.4 S 6 6 3 3 1015.5 1015.5 0.0
23/03:30am 19.4 19.7 15.1 76 2.5 S 7 9 4 5 1015.8 1015.8 0.0
23/03:00am 19.5 19.8 15.0 75 2.6 S 7 9 4 5 1016.0 1016.0 0.0
23/02:30am 19.6 19.1 14.8 74 2.8 SSW 11 13 6 7 1016.3 1016.3 0.0
23/02:00am 19.9 19.3 14.7 72 3.0 S 11 15 6 8 1016.5 1016.5 0.0
23/01:30am 19.9 19.3 14.7 72 3.0 S 11 13 6 7 1016.8 1016.8 0.0
23/01:00am 20.0 19.7 14.4 70 3.2 SSW 9 11 5 6 1017.2 1017.1 0.0
23/12:30am 20.2 19.8 14.1 68 3.5 S 9 13 5 7 1017.2 1017.1 0.0
23/12:00am 20.2 19.6 13.6 66 3.8 S 9 13 5 7 1017.4 1017.3 0.0
 
Date/Time
WST
Temp
°C
App
Temp
°C
Dew
Point
°C
Rel
Hum
%
Delta-T
°C
Wind Press
QNH
hPa
Press
MSL
hPa
Rain since
9am
mm
Dir  Spd
km/h
Gust
km/h
Spd
kts
Gust
kts
22/11:30pm 20.3 19.7 13.5 65 3.9 S 9 11 5 6 1017.2 1017.1 0.0
22/11:00pm 20.2 19.6 13.6 66 3.8 S 9 13 5 7 1017.2 1017.1 0.0
22/10:30pm 20.0 19.5 13.9 68 3.5 S 9 13 5 7 1016.8 1016.8 0.0
22/10:00pm 20.2 19.3 13.6 66 3.8 S 11 13 6 7 1016.7 1016.7 0.0
22/09:30pm 20.4 19.5 13.6 65 3.9 S 11 15 6 8 1016.8 1016.8 0.0
22/09:00pm 20.3 18.6 13.5 65 3.9 S 15 19 8 10 1016.7 1016.7 0.0
22/08:30pm 20.3 19.3 13.3 64 4.0 SSW 11 17 6 9 1016.6 1016.6 0.0
22/08:00pm 20.7 19.1 12.9 61 4.4 S 13 17 7 9 1016.5 1016.5 0.0
22/07:30pm 20.4 19.1 12.6 61 4.4 S 11 15 6 8 1016.1 1016.1 0.0
22/07:00pm 20.5 18.0 12.2 59 4.6 S 17 20 9 11 1015.7 1015.7 0.0
22/06:30pm 20.6 17.5 12.1 58 4.8 S 20 26 11 14 1015.4 1015.4 0.0
22/06:00pm 21.0 18.3 11.6 55 5.2 S 17 24 9 13 1015.4 1015.4 0.0
22/05:30pm 21.4 18.1 11.7 54 5.4 SSW 20 28 11 15 1015.3 1015.3 0.0
22/05:00pm 22.1 19.8 11.8 52 5.8 SSW 15 22 8 12 1015.0 1015.0 0.0
22/04:30pm 23.0 20.5 11.1 47 6.6 S 15 20 8 11 1014.9 1014.9 0.0
22/04:00pm 23.0 19.4 10.4 45 6.9 S 20 24 11 13 1014.7 1014.7 0.0
22/03:30pm 23.0 19.8 10.1 44 7.1 S 17 20 9 11 1014.9 1014.9 0.0
22/03:00pm 22.9 19.7 10.0 44 7.0 S 17 24 9 13 1014.9 1014.9 0.0
22/02:30pm 22.8 19.4 9.2 42 7.3 S 17 22 9 12 1014.9 1014.9 0.0

Other Formats:

Comma delimited format used in spreadsheet applications
http://www.bom.gov.au/fwo/IDW60801/IDW60801.94306.axf

JavaScript Object Notation format (JSON) in row-major order
http://www.bom.gov.au/fwo/IDW60801/IDW60801.94306.json